Time;durP1;ratioP1;P1;durP2;ratioP2;P2;SDS_P1;SDS_P2;PMS_P1;PMS_P2;Temp;Humidity;BMP_temperature;BMP_pressure;BME280_temperature;BME280_humidity;BME280_pressure;Samples;Min_cycle;Max_cycle;Signal;HPM_P1;HPM_P2
2023/12/31 00:00:19;;;;;;;;;;;2.70;99.90;;;;;;5102221;28;20150;-70
2023/12/31 00:02:45;;;;;;;;;;;2.60;99.90;;;;;;5101895;28;19959;-70
2023/12/31 00:05:12;;;;;;;;;;;2.60;99.90;;;;;;5096869;28;19927;-70
2023/12/31 00:07:38;;;;;;;;;;;2.60;99.90;;;;;;5101931;28;20150;-69
2023/12/31 00:10:06;;;;;;;;;;;2.70;99.90;;;;;;5099533;28;19988;-68
2023/12/31 00:12:32;;;;;;;;;;;2.80;99.90;;;;;;5101790;28;19920;-70
2023/12/31 00:14:59;;;;;;;;;;;2.90;99.90;;;;;;5095589;28;19982;-69
2023/12/31 00:17:27;;;;;;;;;;;3.00;99.90;;;;;;5102293;28;19920;-70
2023/12/31 00:19:53;;;;;;;;;;;3.10;99.90;;;;;;5095509;28;20115;-69
2023/12/31 00:22:20;;;;;;;;;;;3.20;99.90;;;;;;5102369;28;19971;-69
2023/12/31 00:24:51;;;;;;;;;;;3.20;99.90;;;;;;5102285;28;19983;-71
2023/12/31 00:27:17;;;;;;;;;;;3.30;99.90;;;;;;5096228;28;19921;-70
2023/12/31 00:29:45;;;;;;;;;;;3.30;99.90;;;;;;5101831;28;19942;-69
2023/12/31 00:32:12;;;;;;;;;;;3.30;99.90;;;;;;5102348;28;19920;-70
2023/12/31 00:34:40;;;;;;;;;;;3.30;99.90;;;;;;5100342;28;19951;-70
2023/12/31 00:37:06;;;;;;;;;;;3.40;99.90;;;;;;5097303;28;19951;-69
2023/12/31 00:39:33;;;;;;;;;;;3.30;99.90;;;;;;5101610;28;19920;-70
2023/12/31 00:41:59;;;;;;;;;;;3.40;99.90;;;;;;5102738;28;19930;-70
2023/12/31 00:44:26;;;;;;;;;;;3.40;99.90;;;;;;5101900;28;19920;-68
2023/12/31 00:46:53;;;;;;;;;;;3.40;99.90;;;;;;5102652;28;20150;-73
2023/12/31 00:49:21;;;;;;;;;;;3.40;99.90;;;;;;5102381;28;19952;-69
2023/12/31 00:51:49;;;;;;;;;;;3.40;99.90;;;;;;5102102;28;19927;-68
2023/12/31 00:54:16;;;;;;;;;;;3.40;99.90;;;;;;5101976;28;19954;-70
2023/12/31 00:56:42;;;;;;;;;;;3.40;99.90;;;;;;5101879;28;19951;-70
2023/12/31 00:59:09;;;;;;;;;;;3.40;99.90;;;;;;5103085;28;19983;-70
2023/12/31 01:01:35;;;;;;;;;;;3.40;99.90;;;;;;5100659;28;19955;-68
2023/12/31 01:04:02;;;;;;;;;;;3.40;99.90;;;;;;5101834;28;20045;-70
2023/12/31 01:06:29;;;;;;;;;;;3.40;99.90;;;;;;5101660;28;20282;-70
2023/12/31 01:08:59;;;;;;;;;;;3.40;99.90;;;;;;5102218;28;19923;-72
2023/12/31 01:11:27;;;;;;;;;;;3.40;99.90;;;;;;5102224;28;19926;-69
2023/12/31 01:13:54;;;;;;;;;;;3.40;99.90;;;;;;5094062;28;19983;-69
2023/12/31 01:16:20;;;;;;;;;;;3.30;99.90;;;;;;5102033;28;20206;-68
2023/12/31 01:18:47;;;;;;;;;;;3.30;99.90;;;;;;5101900;28;19927;-69
2023/12/31 01:21:14;;;;;;;;;;;3.20;99.90;;;;;;5102231;28;19958;-70
2023/12/31 01:23:40;;;;;;;;;;;3.10;99.90;;;;;;5101235;28;19920;-70
2023/12/31 01:26:08;;;;;;;;;;;3.10;99.90;;;;;;5097058;28;20215;-69
2023/12/31 01:28:35;;;;;;;;;;;3.10;99.90;;;;;;5099910;28;19924;-70
2023/12/31 01:31:02;;;;;;;;;;;3.10;99.90;;;;;;5103499;28;19958;-70
2023/12/31 01:33:28;;;;;;;;;;;3.10;99.90;;;;;;5104330;28;20273;-70
2023/12/31 01:35:55;;;;;;;;;;;3.10;99.90;;;;;;5105582;28;19920;-68
2023/12/31 01:38:22;;;;;;;;;;;3.10;99.90;;;;;;5098575;28;19987;-70
2023/12/31 01:40:52;;;;;;;;;;;3.10;99.90;;;;;;5105506;28;19928;-69
2023/12/31 01:43:20;;;;;;;;;;;3.10;99.90;;;;;;5105190;28;20095;-69
2023/12/31 01:45:46;;;;;;;;;;;3.10;99.90;;;;;;5105234;28;20122;-69
2023/12/31 01:48:14;;;;;;;;;;;3.10;99.90;;;;;;5105437;28;19932;-69
2023/12/31 01:50:40;;;;;;;;;;;3.10;99.90;;;;;;5105518;28;19927;-68
2023/12/31 01:53:07;;;;;;;;;;;3.00;99.90;;;;;;5099985;28;19927;-68
2023/12/31 01:55:34;;;;;;;;;;;2.90;99.90;;;;;;5104135;28;19995;-70
2023/12/31 01:58:01;;;;;;;;;;;2.90;99.90;;;;;;5105169;28;19951;-70
2023/12/31 02:00:29;;;;;;;;;;;2.80;99.90;;;;;;5105206;28;20170;-70
2023/12/31 02:02:58;;;;;;;;;;;2.80;99.90;;;;;;5101168;28;19920;-70
2023/12/31 02:05:25;;;;;;;;;;;2.70;99.90;;;;;;5102571;28;20256;-69
2023/12/31 02:07:52;;;;;;;;;;;2.70;99.90;;;;;;5105194;28;19947;-70
2023/12/31 02:10:18;;;;;;;;;;;2.70;99.90;;;;;;5105229;28;19920;-70
2023/12/31 02:12:45;;;;;;;;;;;2.60;99.90;;;;;;5104442;28;19974;-68
2023/12/31 02:15:12;;;;;;;;;;;2.60;99.90;;;;;;5104257;28;19958;-70
2023/12/31 02:17:40;;;;;;;;;;;2.60;99.90;;;;;;5104418;28;19920;-68
2023/12/31 02:20:07;;;;;;;;;;;2.50;99.90;;;;;;5104913;28;19955;-70
2023/12/31 02:22:34;;;;;;;;;;;2.50;99.90;;;;;;5104028;28;19923;-70
2023/12/31 02:25:05;;;;;;;;;;;2.50;99.90;;;;;;5104407;28;20004;-70
2023/12/31 02:27:33;;;;;;;;;;;2.50;99.90;;;;;;5104211;28;20148;-69
2023/12/31 02:30:00;;;;;;;;;;;2.50;99.90;;;;;;5102849;28;19951;-70
2023/12/31 02:32:27;;;;;;;;;;;2.40;99.90;;;;;;5102617;28;19959;-69
2023/12/31 02:34:53;;;;;;;;;;;2.40;99.90;;;;;;5096294;28;20232;-69
2023/12/31 02:37:20;;;;;;;;;;;2.40;99.90;;;;;;5097972;28;19984;-69
2023/12/31 02:39:46;;;;;;;;;;;2.40;99.90;;;;;;5101366;28;19920;-69
2023/12/31 02:42:13;;;;;;;;;;;2.40;99.90;;;;;;5099802;28;19927;-69
2023/12/31 02:44:41;;;;;;;;;;;2.30;99.90;;;;;;5103211;28;20113;-69
2023/12/31 02:47:11;;;;;;;;;;;2.30;99.90;;;;;;5104999;28;19920;-70
2023/12/31 02:49:37;;;;;;;;;;;2.30;99.90;;;;;;5104429;28;19920;-69
2023/12/31 02:52:04;;;;;;;;;;;2.30;99.90;;;;;;5104987;28;19954;-70
2023/12/31 02:54:31;;;;;;;;;;;2.30;99.90;;;;;;5103624;28;19983;-69
2023/12/31 02:56:57;;;;;;;;;;;2.30;99.90;;;;;;5100069;28;19920;-69
2023/12/31 02:59:24;;;;;;;;;;;2.20;99.90;;;;;;5101023;28;19952;-69
2023/12/31 03:01:52;;;;;;;;;;;2.20;99.90;;;;;;5103986;28;20105;-69
2023/12/31 03:04:20;;;;;;;;;;;2.20;99.90;;;;;;5101325;28;19927;-69
2023/12/31 03:06:51;;;;;;;;;;;2.20;99.90;;;;;;5103836;28;19924;-69
2023/12/31 03:09:18;;;;;;;;;;;2.20;99.90;;;;;;5096538;28;20206;-70
2023/12/31 03:11:44;;;;;;;;;;;2.10;99.90;;;;;;5104343;28;19987;-69
2023/12/31 03:14:11;;;;;;;;;;;2.10;99.90;;;;;;5104463;28;20170;-70
2023/12/31 03:16:37;;;;;;;;;;;2.10;99.90;;;;;;5103058;28;19987;-68
2023/12/31 03:19:05;;;;;;;;;;;2.00;99.90;;;;;;5096089;28;20218;-69
2023/12/31 03:21:32;;;;;;;;;;;2.00;99.90;;;;;;5104989;28;19952;-69
2023/12/31 03:23:59;;;;;;;;;;;2.00;99.90;;;;;;5099606;28;19927;-69
2023/12/31 03:26:25;;;;;;;;;;;2.00;99.90;;;;;;5101414;28;19994;-68
2023/12/31 03:28:52;;;;;;;;;;;2.00;99.90;;;;;;5100976;28;19920;-69
2023/12/31 03:31:18;;;;;;;;;;;2.10;99.90;;;;;;5103495;28;19926;-69
2023/12/31 03:33:46;;;;;;;;;;;2.10;99.90;;;;;;5100250;28;19942;-68
2023/12/31 03:36:14;;;;;;;;;;;2.00;99.90;;;;;;5103506;28;19991;-69
2023/12/31 03:38:40;;;;;;;;;;;2.00;99.90;;;;;;5102727;28;19987;-69
2023/12/31 03:41:07;;;;;;;;;;;2.00;99.90;;;;;;5103916;28;20172;-69
2023/12/31 03:43:33;;;;;;;;;;;2.00;99.90;;;;;;5103754;28;19920;-70
2023/12/31 03:46:00;;;;;;;;;;;1.90;99.90;;;;;;5104239;28;19987;-69
2023/12/31 03:48:27;;;;;;;;;;;1.90;99.90;;;;;;5103699;28;19951;-70
2023/12/31 03:50:53;;;;;;;;;;;1.90;99.90;;;;;;5103973;28;19987;-68
2023/12/31 03:53:21;;;;;;;;;;;1.90;99.90;;;;;;5102754;28;20285;-70
2023/12/31 03:55:48;;;;;;;;;;;1.80;99.90;;;;;;5103995;28;19974;-68
2023/12/31 03:58:15;;;;;;;;;;;1.80;99.90;;;;;;5103650;28;20429;-70
2023/12/31 04:00:41;;;;;;;;;;;1.80;99.90;;;;;;5104054;28;19959;-68
2023/12/31 04:03:08;;;;;;;;;;;1.80;99.90;;;;;;5103260;28;19991;-69
2023/12/31 04:05:34;;;;;;;;;;;1.80;99.90;;;;;;5103910;28;19920;-69
2023/12/31 04:08:01;;;;;;;;;;;1.80;99.90;;;;;;5103753;28;19920;-70
2023/12/31 04:10:29;;;;;;;;;;;1.80;99.90;;;;;;5103535;28;19987;-68
2023/12/31 04:12:55;;;;;;;;;;;1.80;99.90;;;;;;5095518;28;19952;-68
2023/12/31 04:15:22;;;;;;;;;;;1.90;99.90;;;;;;5103397;28;19924;-68
2023/12/31 04:17:49;;;;;;;;;;;1.90;99.90;;;;;;5103594;28;19928;-68
2023/12/31 04:20:15;;;;;;;;;;;1.90;99.90;;;;;;5103688;28;19987;-69
2023/12/31 04:22:42;;;;;;;;;;;1.90;99.90;;;;;;5103246;28;19951;-69
2023/12/31 04:25:09;;;;;;;;;;;1.90;99.90;;;;;;5103079;28;19995;-69
2023/12/31 04:27:38;;;;;;;;;;;1.90;99.90;;;;;;5103485;28;20178;-68
2023/12/31 04:30:05;;;;;;;;;;;1.90;99.90;;;;;;5103357;28;20214;-69
2023/12/31 04:32:32;;;;;;;;;;;1.90;99.90;;;;;;5103573;28;19924;-69
2023/12/31 04:34:59;;;;;;;;;;;1.90;99.90;;;;;;5102847;28;19919;-69
2023/12/31 04:37:25;;;;;;;;;;;2.00;99.90;;;;;;5103360;28;19927;-69
2023/12/31 04:39:52;;;;;;;;;;;1.90;99.90;;;;;;5103386;28;19926;-69
2023/12/31 04:42:19;;;;;;;;;;;1.90;99.90;;;;;;5103393;28;20210;-68
2023/12/31 04:44:47;;;;;;;;;;;2.00;99.90;;;;;;5102927;28;19938;-69
2023/12/31 04:47:13;;;;;;;;;;;2.00;99.90;;;;;;5103206;28;19962;-69
2023/12/31 04:49:40;;;;;;;;;;;2.00;99.90;;;;;;5102926;28;19985;-69
2023/12/31 04:52:08;;;;;;;;;;;2.10;99.90;;;;;;5102519;28;19920;-69
2023/12/31 04:54:35;;;;;;;;;;;2.10;99.90;;;;;;5102897;28;19947;-72
2023/12/31 04:57:01;;;;;;;;;;;2.10;99.90;;;;;;5103065;28;19987;-70
2023/12/31 04:59:28;;;;;;;;;;;2.10;99.90;;;;;;5103255;28;19926;-69
2023/12/31 05:01:56;;;;;;;;;;;2.20;99.90;;;;;;5095127;28;19992;-69
2023/12/31 05:04:23;;;;;;;;;;;2.20;99.90;;;;;;5103342;28;19967;-69
2023/12/31 05:06:49;;;;;;;;;;;2.20;99.90;;;;;;5106798;28;20040;-69
2023/12/31 05:09:16;;;;;;;;;;;2.20;99.90;;;;;;5106728;28;19980;-69
2023/12/31 05:11:42;;;;;;;;;;;2.20;99.90;;;;;;5106767;28;19927;-69
2023/12/31 05:14:09;;;;;;;;;;;2.20;99.90;;;;;;5106419;28;19927;-70
2023/12/31 05:16:36;;;;;;;;;;;2.30;99.90;;;;;;5107030;28;19920;-70
2023/12/31 05:19:03;;;;;;;;;;;2.30;99.90;;;;;;5106884;28;20003;-69
2023/12/31 05:21:30;;;;;;;;;;;2.30;99.90;;;;;;5106641;28;20260;-69
2023/12/31 05:23:57;;;;;;;;;;;2.30;99.90;;;;;;5106254;28;19956;-69
2023/12/31 05:26:23;;;;;;;;;;;2.30;99.90;;;;;;5106843;28;19958;-69
2023/12/31 05:28:50;;;;;;;;;;;2.30;99.90;;;;;;5106568;28;19926;-70
2023/12/31 05:31:17;;;;;;;;;;;2.20;99.90;;;;;;5090280;28;19939;-69
2023/12/31 05:33:44;;;;;;;;;;;2.20;99.90;;;;;;5086767;28;19926;-68
2023/12/31 05:36:12;;;;;;;;;;;2.20;99.90;;;;;;5087092;28;19924;-69
2023/12/31 05:38:38;;;;;;;;;;;2.20;99.90;;;;;;5096275;28;19979;-68
2023/12/31 05:41:05;;;;;;;;;;;2.20;99.90;;;;;;5106651;28;19920;-70
2023/12/31 05:43:31;;;;;;;;;;;2.20;99.90;;;;;;5106025;28;19927;-69
2023/12/31 05:45:58;;;;;;;;;;;2.20;99.90;;;;;;5106100;28;19920;-69
2023/12/31 05:48:24;;;;;;;;;;;2.20;99.90;;;;;;5106295;28;19991;-70
2023/12/31 05:50:51;;;;;;;;;;;2.20;99.90;;;;;;5106266;28;20206;-69
2023/12/31 05:53:19;;;;;;;;;;;2.20;99.90;;;;;;5105982;28;19920;-68
2023/12/31 05:55:46;;;;;;;;;;;2.20;99.90;;;;;;5106482;28;19959;-69
2023/12/31 05:58:12;;;;;;;;;;;2.20;99.90;;;;;;5106346;28;19973;-69
2023/12/31 06:00:39;;;;;;;;;;;2.20;99.90;;;;;;5096814;28;19921;-68
2023/12/31 06:03:06;;;;;;;;;;;2.30;99.90;;;;;;5099379;28;19920;-69
2023/12/31 06:05:32;;;;;;;;;;;2.30;99.90;;;;;;5106145;28;19982;-69
2023/12/31 06:07:59;;;;;;;;;;;2.30;99.90;;;;;;5105687;28;19983;-69
2023/12/31 06:10:27;;;;;;;;;;;2.30;99.90;;;;;;5105725;28;19942;-69
2023/12/31 06:12:54;;;;;;;;;;;2.30;99.90;;;;;;5105102;28;19958;-68
2023/12/31 06:15:20;;;;;;;;;;;2.30;99.90;;;;;;5104947;28;19927;-69
2023/12/31 06:17:48;;;;;;;;;;;2.40;99.90;;;;;;5105653;28;19926;-68
2023/12/31 06:20:15;;;;;;;;;;;2.40;99.90;;;;;;5105741;28;20002;-69
2023/12/31 06:22:42;;;;;;;;;;;2.50;99.90;;;;;;5105712;28;19920;-69
2023/12/31 06:25:09;;;;;;;;;;;2.50;99.90;;;;;;5104817;28;20237;-69
2023/12/31 06:27:38;;;;;;;;;;;2.60;99.90;;;;;;5105600;28;19920;-69
2023/12/31 06:30:06;;;;;;;;;;;2.60;99.90;;;;;;5105470;28;19960;-69
2023/12/31 06:32:32;;;;;;;;;;;2.60;99.90;;;;;;5105503;28;19920;-69
2023/12/31 06:34:59;;;;;;;;;;;2.70;99.90;;;;;;5105080;28;20164;-68
2023/12/31 06:37:26;;;;;;;;;;;2.70;99.90;;;;;;5105353;28;19920;-69
2023/12/31 06:39:53;;;;;;;;;;;2.80;99.90;;;;;;5105033;28;19920;-69
2023/12/31 06:42:19;;;;;;;;;;;2.80;99.90;;;;;;5105655;28;19928;-69
2023/12/31 06:44:47;;;;;;;;;;;2.80;99.90;;;;;;5104498;28;20269;-69
2023/12/31 06:47:14;;;;;;;;;;;2.80;99.90;;;;;;5105282;28;19958;-69
2023/12/31 06:49:40;;;;;;;;;;;2.90;99.90;;;;;;5105205;28;19987;-69
2023/12/31 06:52:07;;;;;;;;;;;2.90;99.90;;;;;;5104774;28;20229;-68
2023/12/31 06:54:34;;;;;;;;;;;3.00;99.90;;;;;;5104625;28;19920;-70
2023/12/31 06:57:00;;;;;;;;;;;3.00;99.90;;;;;;5105201;28;20009;-69
2023/12/31 06:59:27;;;;;;;;;;;3.00;99.90;;;;;;5104521;28;19987;-70
2023/12/31 07:01:55;;;;;;;;;;;3.00;99.90;;;;;;5104915;28;19920;-69
2023/12/31 07:04:21;;;;;;;;;;;2.90;99.90;;;;;;5104408;28;19954;-70
2023/12/31 07:06:48;;;;;;;;;;;2.90;99.90;;;;;;5104251;28;19986;-69
2023/12/31 07:09:14;;;;;;;;;;;2.90;99.90;;;;;;5104701;28;19920;-69
2023/12/31 07:11:41;;;;;;;;;;;2.90;99.90;;;;;;5104735;28;19920;-69
2023/12/31 07:14:08;;;;;;;;;;;2.90;99.90;;;;;;5104040;28;19991;-69
2023/12/31 07:16:34;;;;;;;;;;;2.90;99.90;;;;;;5104801;28;19987;-69
2023/12/31 07:19:02;;;;;;;;;;;2.90;99.90;;;;;;5104544;28;20173;-68
2023/12/31 07:21:31;;;;;;;;;;;2.80;99.90;;;;;;5103710;28;20123;-69
2023/12/31 07:23:58;;;;;;;;;;;2.80;99.90;;;;;;5103921;28;19951;-68
2023/12/31 07:26:26;;;;;;;;;;;2.80;99.90;;;;;;5104388;28;19947;-68
2023/12/31 07:28:54;;;;;;;;;;;2.80;99.90;;;;;;5103758;28;19926;-69
2023/12/31 07:31:21;;;;;;;;;;;2.70;99.90;;;;;;5103190;28;19986;-69
2023/12/31 07:33:47;;;;;;;;;;;2.80;99.90;;;;;;5094276;28;19920;-69
2023/12/31 07:36:15;;;;;;;;;;;2.80;99.90;;;;;;5103617;28;19947;-68
2023/12/31 07:38:43;;;;;;;;;;;2.80;99.90;;;;;;5094129;28;19955;-70
2023/12/31 07:41:11;;;;;;;;;;;2.80;99.90;;;;;;5090717;28;19920;-69
2023/12/31 07:43:38;;;;;;;;;;;2.90;99.90;;;;;;5103443;28;20221;-68
2023/12/31 07:46:05;;;;;;;;;;;2.90;99.90;;;;;;5104148;28;19926;-69
2023/12/31 07:48:32;;;;;;;;;;;3.00;99.90;;;;;;5103725;28;19962;-69
2023/12/31 07:50:59;;;;;;;;;;;3.10;99.90;;;;;;5103747;28;20122;-69
2023/12/31 07:53:27;;;;;;;;;;;3.10;99.90;;;;;;5103293;28;20256;-69
2023/12/31 07:55:54;;;;;;;;;;;3.10;99.90;;;;;;5103582;28;19951;-70
2023/12/31 07:58:24;;;;;;;;;;;3.10;99.90;;;;;;5103872;28;20105;-68
2023/12/31 08:00:51;;;;;;;;;;;3.10;99.90;;;;;;5103646;28;19920;-70
2023/12/31 08:03:18;;;;;;;;;;;3.20;99.90;;;;;;5103341;28;20172;-69
2023/12/31 08:05:44;;;;;;;;;;;3.20;99.90;;;;;;5103880;28;19920;-68
2023/12/31 08:08:12;;;;;;;;;;;3.20;99.90;;;;;;5103343;28;19920;-69
2023/12/31 08:10:40;;;;;;;;;;;3.30;99.90;;;;;;5103876;28;19920;-70
2023/12/31 08:13:07;;;;;;;;;;;3.30;99.90;;;;;;5103045;28;20202;-68
2023/12/31 08:15:34;;;;;;;;;;;3.30;99.90;;;;;;5103703;28;20113;-69
2023/12/31 08:18:00;;;;;;;;;;;3.30;99.90;;;;;;5103507;28;19926;-67
2023/12/31 08:20:27;;;;;;;;;;;3.40;99.90;;;;;;5103649;28;19947;-69
2023/12/31 08:22:53;;;;;;;;;;;3.40;99.90;;;;;;5102931;28;19920;-69
2023/12/31 08:25:20;;;;;;;;;;;3.40;99.90;;;;;;5103917;28;19926;-72
2023/12/31 08:27:48;;;;;;;;;;;3.40;99.90;;;;;;5103307;28;19979;-71
2023/12/31 08:30:15;;;;;;;;;;;3.40;99.90;;;;;;5103647;28;20175;-71
2023/12/31 08:32:41;;;;;;;;;;;3.40;99.90;;;;;;5100708;28;19991;-70
2023/12/31 08:35:10;;;;;;;;;;;3.50;99.90;;;;;;5083661;28;20121;-70
2023/12/31 08:37:36;;;;;;;;;;;3.50;99.90;;;;;;5093081;28;19924;-70
2023/12/31 08:40:03;;;;;;;;;;;3.60;99.90;;;;;;5093979;28;20206;-71
2023/12/31 08:42:30;;;;;;;;;;;3.60;99.90;;;;;;5104516;28;20236;-68
2023/12/31 08:44:58;;;;;;;;;;;3.70;99.90;;;;;;5107207;28;19920;-70
2023/12/31 08:47:25;;;;;;;;;;;3.70;99.90;;;;;;5107557;28;19987;-70
2023/12/31 08:49:51;;;;;;;;;;;3.70;99.90;;;;;;5107150;28;20237;-68
2023/12/31 08:52:18;;;;;;;;;;;3.80;99.90;;;;;;5107574;28;19926;-70
2023/12/31 08:54:44;;;;;;;;;;;3.80;99.90;;;;;;5106989;28;19942;-68
2023/12/31 08:57:11;;;;;;;;;;;3.90;99.90;;;;;;5107402;28;19982;-69
2023/12/31 08:59:38;;;;;;;;;;;4.00;99.90;;;;;;5107351;28;19927;-69
2023/12/31 09:02:06;;;;;;;;;;;4.10;99.90;;;;;;5107039;28;19983;-69
2023/12/31 09:04:34;;;;;;;;;;;4.20;99.90;;;;;;5106513;28;19990;-69
2023/12/31 09:07:00;;;;;;;;;;;4.30;99.90;;;;;;5107315;28;19994;-69
2023/12/31 09:09:27;;;;;;;;;;;4.30;99.90;;;;;;5107140;28;19973;-69
2023/12/31 09:11:54;;;;;;;;;;;4.40;99.90;;;;;;5106823;28;19987;-70
2023/12/31 09:14:20;;;;;;;;;;;4.40;99.90;;;;;;5106577;28;19995;-70
2023/12/31 09:16:47;;;;;;;;;;;4.40;99.90;;;;;;5107175;28;19983;-70
2023/12/31 09:19:15;;;;;;;;;;;4.50;99.90;;;;;;5106474;28;19927;-68
2023/12/31 09:21:41;;;;;;;;;;;4.50;99.90;;;;;;5106892;28;20189;-68
2023/12/31 09:24:08;;;;;;;;;;;4.60;99.90;;;;;;5106259;28;19983;-70
2023/12/31 09:26:35;;;;;;;;;;;4.70;99.90;;;;;;5106727;28;19920;-69
2023/12/31 09:29:01;;;;;;;;;;;4.70;99.90;;;;;;5103057;28;19921;-69
2023/12/31 09:31:28;;;;;;;;;;;4.80;99.90;;;;;;5102640;28;19957;-68
2023/12/31 09:33:55;;;;;;;;;;;4.90;99.90;;;;;;5096984;28;19983;-69
2023/12/31 09:36:22;;;;;;;;;;;4.90;99.90;;;;;;5105653;28;19951;-69
2023/12/31 09:38:49;;;;;;;;;;;5.00;99.90;;;;;;5105118;28;19959;-68
2023/12/31 09:41:17;;;;;;;;;;;5.00;99.90;;;;;;5106110;28;19969;-69
2023/12/31 09:43:44;;;;;;;;;;;5.00;99.90;;;;;;5105989;28;19954;-70
2023/12/31 09:46:12;;;;;;;;;;;5.10;99.90;;;;;;5105872;28;19955;-70
2023/12/31 09:48:38;;;;;;;;;;;5.10;99.90;;;;;;5105997;28;19986;-68
2023/12/31 09:51:05;;;;;;;;;;;5.10;99.90;;;;;;5100593;28;20256;-70
2023/12/31 09:53:34;;;;;;;;;;;5.20;99.90;;;;;;5105728;28;19920;-70
2023/12/31 09:56:04;;;;;;;;;;;5.20;99.90;;;;;;5101565;28;19920;-70
2023/12/31 09:58:30;;;;;;;;;;;5.20;99.90;;;;;;5105766;28;20012;-69
2023/12/31 10:00:57;;;;;;;;;;;5.20;99.90;;;;;;5106491;28;19947;-70
2023/12/31 10:03:25;;;;;;;;;;;5.30;99.90;;;;;;5105735;28;19927;-68
2023/12/31 10:05:52;;;;;;;;;;;5.30;99.90;;;;;;5100297;28;20275;-70
2023/12/31 10:08:19;;;;;;;;;;;5.30;99.90;;;;;;5105686;28;20269;-69
2023/12/31 10:10:48;;;;;;;;;;;5.30;99.90;;;;;;5106076;28;19962;-70
2023/12/31 10:13:16;;;;;;;;;;;5.40;99.90;;;;;;5105337;28;19983;-69
2023/12/31 10:15:43;;;;;;;;;;;5.40;99.90;;;;;;5105519;28;19920;-69
2023/12/31 10:18:10;;;;;;;;;;;5.40;99.90;;;;;;5105214;28;19962;-68
2023/12/31 10:20:37;;;;;;;;;;;5.40;99.90;;;;;;5105175;28;19952;-68
2023/12/31 10:23:03;;;;;;;;;;;5.40;99.90;;;;;;5105283;28;20141;-69
2023/12/31 10:25:30;;;;;;;;;;;5.40;99.90;;;;;;5103104;28;20177;-69
2023/12/31 10:27:58;;;;;;;;;;;5.50;99.90;;;;;;5104576;28;19988;-68
2023/12/31 10:30:25;;;;;;;;;;;5.50;99.90;;;;;;5093482;28;19920;-70
2023/12/31 10:32:52;;;;;;;;;;;5.50;99.90;;;;;;5092981;28;19929;-70
2023/12/31 10:35:20;;;;;;;;;;;5.60;99.90;;;;;;5100466;28;19962;-69
2023/12/31 10:37:46;;;;;;;;;;;5.60;99.90;;;;;;5103389;28;20229;-68
2023/12/31 10:40:16;;;;;;;;;;;5.60;99.90;;;;;;5103817;28;20256;-68
2023/12/31 10:42:45;;;;;;;;;;;5.60;99.90;;;;;;5103950;28;19957;-68
2023/12/31 10:45:14;;;;;;;;;;;5.70;99.90;;;;;;5097744;28;20226;-69
2023/12/31 10:47:43;;;;;;;;;;;5.70;99.90;;;;;;5095049;28;19956;-69
2023/12/31 10:50:12;;;;;;;;;;;5.70;99.90;;;;;;5103995;28;19999;-70
2023/12/31 10:52:41;;;;;;;;;;;5.80;99.90;;;;;;5089427;28;19958;-69
2023/12/31 10:55:12;;;;;;;;;;;5.80;99.90;;;;;;5103018;28;19962;-69
2023/12/31 10:57:39;;;;;;;;;;;5.80;99.90;;;;;;5095864;28;19927;-70
2023/12/31 11:00:08;;;;;;;;;;;5.90;99.90;;;;;;5099744;28;19922;-69
2023/12/31 11:02:36;;;;;;;;;;;5.90;99.90;;;;;;5101354;28;19991;-70
2023/12/31 11:05:03;;;;;;;;;;;5.90;99.90;;;;;;5099143;28;19960;-70
2023/12/31 11:07:30;;;;;;;;;;;6.00;99.90;;;;;;5093595;28;19927;-73
2023/12/31 11:09:57;;;;;;;;;;;6.00;99.90;;;;;;5103354;28;19951;-69
2023/12/31 11:12:24;;;;;;;;;;;6.00;99.90;;;;;;5103660;28;19927;-68
2023/12/31 11:14:51;;;;;;;;;;;6.10;99.90;;;;;;5085843;28;19920;-68
2023/12/31 11:17:31;;;;;;;;;;;6.20;99.90;;;;;;5098715;28;19920;-69
2023/12/31 11:20:12;;;;;;;;;;;6.30;99.90;;;;;;5089477;28;19959;-69
2023/12/31 11:22:42;;;;;;;;;;;6.40;99.90;;;;;;5102992;28;19924;-68
2023/12/31 11:25:08;;;;;;;;;;;6.50;99.90;;;;;;5101979;28;19920;-68
2023/12/31 11:27:35;;;;;;;;;;;6.50;99.90;;;;;;5087856;28;19927;-68
2023/12/31 11:30:03;;;;;;;;;;;6.60;99.90;;;;;;5096367;28;19962;-70
2023/12/31 11:32:30;;;;;;;;;;;6.60;99.90;;;;;;5095746;28;19920;-69
2023/12/31 11:34:56;;;;;;;;;;;6.70;99.90;;;;;;5102823;28;19928;-70
2023/12/31 11:37:26;;;;;;;;;;;6.70;99.90;;;;;;5096126;28;19920;-70
2023/12/31 11:39:54;;;;;;;;;;;6.70;99.90;;;;;;5102322;28;19955;-70
2023/12/31 11:42:21;;;;;;;;;;;6.60;99.90;;;;;;5103218;28;19978;-69
2023/12/31 11:44:48;;;;;;;;;;;6.70;99.90;;;;;;5102260;28;19920;-69
2023/12/31 11:47:15;;;;;;;;;;;6.80;99.90;;;;;;5102752;28;19924;-69
2023/12/31 11:49:42;;;;;;;;;;;6.80;99.90;;;;;;5102287;28;20206;-74
2023/12/31 11:52:09;;;;;;;;;;;6.80;99.90;;;;;;5097243;28;20141;-67
2023/12/31 11:54:39;;;;;;;;;;;6.80;99.90;;;;;;5101400;28;19964;-69
2023/12/31 11:57:06;;;;;;;;;;;6.80;99.90;;;;;;5104400;28;19920;-67
2023/12/31 11:59:35;;;;;;;;;;;6.80;99.90;;;;;;5101444;28;20051;-68
2023/12/31 12:02:03;;;;;;;;;;;6.80;99.90;;;;;;5096891;28;20158;-68
2023/12/31 12:04:29;;;;;;;;;;;6.80;99.90;;;;;;5103788;28;19983;-68
2023/12/31 12:06:56;;;;;;;;;;;6.80;99.90;;;;;;5102014;28;19988;-70
2023/12/31 12:09:25;;;;;;;;;;;6.80;99.90;;;;;;5103141;28;19952;-68
2023/12/31 12:11:57;;;;;;;;;;;6.80;99.90;;;;;;5100354;28;20265;-68
2023/12/31 12:14:24;;;;;;;;;;;6.80;99.90;;;;;;5099210;28;19928;-69
2023/12/31 12:16:51;;;;;;;;;;;6.80;99.90;;;;;;5101913;28;19951;-68
2023/12/31 12:19:17;;;;;;;;;;;6.90;99.90;;;;;;5097920;28;19929;-68
2023/12/31 12:21:44;;;;;;;;;;;6.90;99.90;;;;;;5104466;28;19920;-69
2023/12/31 12:24:11;;;;;;;;;;;6.90;99.90;;;;;;5109393;28;19987;-69
2023/12/31 12:26:37;;;;;;;;;;;6.90;99.90;;;;;;5100419;28;19967;-69
2023/12/31 12:29:05;;;;;;;;;;;6.90;99.90;;;;;;5099959;28;19928;-69
2023/12/31 12:31:36;;;;;;;;;;;6.90;99.90;;;;;;5100188;28;19962;-70
2023/12/31 12:34:03;;;;;;;;;;;6.80;99.90;;;;;;5101648;28;19927;-68
2023/12/31 12:36:30;;;;;;;;;;;6.90;99.90;;;;;;5103779;28;19919;-68
2023/12/31 12:39:02;;;;;;;;;;;6.80;99.90;;;;;;5101489;28;20003;-68
2023/12/31 12:41:30;;;;;;;;;;;6.80;99.90;;;;;;5102665;28;19988;-69
2023/12/31 12:43:57;;;;;;;;;;;6.80;99.90;;;;;;5105639;28;19982;-70
2023/12/31 12:46:28;;;;;;;;;;;6.80;99.90;;;;;;5102793;28;19920;-69
2023/12/31 12:48:54;;;;;;;;;;;6.70;99.90;;;;;;5094670;28;19954;-68
2023/12/31 12:51:21;;;;;;;;;;;6.70;99.90;;;;;;5104858;28;19951;-71
2023/12/31 12:53:47;;;;;;;;;;;6.70;99.90;;;;;;5103563;28;19939;-70
2023/12/31 12:56:14;;;;;;;;;;;6.80;99.90;;;;;;5106778;28;19975;-69
2023/12/31 12:58:41;;;;;;;;;;;6.70;99.90;;;;;;5105978;28;20003;-68
2023/12/31 13:01:07;;;;;;;;;;;6.70;99.90;;;;;;5103140;28;19924;-68
2023/12/31 13:03:35;;;;;;;;;;;6.70;99.90;;;;;;5101994;28;19924;-70
2023/12/31 13:06:01;;;;;;;;;;;6.80;99.90;;;;;;5102146;28;19952;-69
2023/12/31 13:08:27;;;;;;;;;;;6.80;99.90;;;;;;5104605;28;20099;-69
2023/12/31 13:10:55;;;;;;;;;;;6.70;99.90;;;;;;5111200;28;20282;-69
2023/12/31 13:13:22;;;;;;;;;;;6.70;99.90;;;;;;5101943;28;19924;-69
2023/12/31 13:15:48;;;;;;;;;;;6.70;99.90;;;;;;5102703;28;19991;-69
2023/12/31 13:18:15;;;;;;;;;;;6.70;99.90;;;;;;5105508;28;19924;-69
2023/12/31 13:20:43;;;;;;;;;;;6.70;99.90;;;;;;5096237;28;19984;-69
2023/12/31 13:23:10;;;;;;;;;;;6.70;99.90;;;;;;5108913;28;19983;-69
2023/12/31 13:25:37;;;;;;;;;;;6.70;99.90;;;;;;5107898;28;20158;-69
2023/12/31 13:28:05;;;;;;;;;;;6.80;99.90;;;;;;5112359;28;19959;-69
2023/12/31 13:30:31;;;;;;;;;;;6.90;99.90;;;;;;5108570;28;19919;-68
2023/12/31 13:32:58;;;;;;;;;;;6.90;99.90;;;;;;5106090;28;19959;-68
2023/12/31 13:35:25;;;;;;;;;;;7.00;99.90;;;;;;5105337;28;19951;-70
2023/12/31 13:37:53;;;;;;;;;;;7.00;99.90;;;;;;5108118;28;19988;-69
2023/12/31 13:40:19;;;;;;;;;;;7.00;99.90;;;;;;5110270;28;20185;-69
2023/12/31 13:42:46;;;;;;;;;;;7.00;99.90;;;;;;5099746;28;19939;-68
2023/12/31 13:45:13;;;;;;;;;;;7.00;99.90;;;;;;5115343;28;19979;-69
2023/12/31 13:47:39;;;;;;;;;;;6.90;99.90;;;;;;5109309;28;19963;-70
2023/12/31 13:50:06;;;;;;;;;;;6.90;99.90;;;;;;5105053;28;19999;-68
2023/12/31 13:52:34;;;;;;;;;;;6.90;99.90;;;;;;5103874;28;19983;-69
2023/12/31 13:55:02;;;;;;;;;;;6.90;99.90;;;;;;5109890;28;20206;-67
2023/12/31 13:57:28;;;;;;;;;;;6.90;99.90;;;;;;5109787;28;19920;-69
2023/12/31 13:59:55;;;;;;;;;;;6.80;99.90;;;;;;5110460;28;19951;-69
2023/12/31 14:02:22;;;;;;;;;;;6.80;99.90;;;;;;5115789;28;19920;-68
2023/12/31 14:04:48;;;;;;;;;;;6.80;99.90;;;;;;5106257;28;19964;-69
2023/12/31 14:07:15;;;;;;;;;;;6.70;99.90;;;;;;5108631;28;19920;-70
2023/12/31 14:09:42;;;;;;;;;;;6.70;99.90;;;;;;5103032;28;19931;-68
2023/12/31 14:12:14;;;;;;;;;;;6.60;99.90;;;;;;5111307;28;19979;-69
2023/12/31 14:14:41;;;;;;;;;;;6.60;99.90;;;;;;5106492;28;19978;-68
2023/12/31 14:17:07;;;;;;;;;;;6.50;99.90;;;;;;5106738;28;19980;-69
2023/12/31 14:19:34;;;;;;;;;;;6.50;99.90;;;;;;5100336;28;19983;-68
2023/12/31 14:22:01;;;;;;;;;;;6.50;99.90;;;;;;5093088;28;19987;-69
2023/12/31 14:24:28;;;;;;;;;;;6.40;99.90;;;;;;5099941;28;19920;-69
2023/12/31 14:26:55;;;;;;;;;;;6.40;99.90;;;;;;5106677;28;19951;-68
2023/12/31 14:29:23;;;;;;;;;;;6.40;99.90;;;;;;5104394;28;19923;-69